Terminal Aerodrome Forecast
Issued by NWS Twin Cities, MN

Home | Current Version | Previous Version | Graphics & Text | Print | Product List | Glossary On
Versions: 1 2 3 4 5 6 7 8 9 10 11 12 13 14 15 16 17 18 19
000
FTUS43 KMPX 282300
TAFSTC
TAF
KSTC 282339Z 2900/2924 30013G19KT P6SM OVC025
     FM290400 31009KT P6SM SCT025 OVC040
     FM290900 31007KT P6SM BKN020 OVC040
     FM291700 30006KT P6SM SCT025 BKN040=

USA.gov is the U.S. government's official web portal to all federal, state and local government web resources and services.